Time;durP1;ratioP1;P1;durP2;ratioP2;P2;SDS_P1;SDS_P2;PMS_P1;PMS_P2;Temp;Humidity;BMP_temperature;BMP_pressure;BME280_temperature;BME280_humidity;BME280_pressure;Samples;Min_cycle;Max_cycle;Signal;HPM_P1;HPM_P2
2023/06/06 00:00:54;;;;;;;2.40;2.20;;;24.40;49.60;;;;;;5069297;28;20690;-44
2023/06/06 00:03:25;;;;;;;2.10;1.90;;;24.40;49.60;;;;;;5067803;28;20331;-45
2023/06/06 00:05:55;;;;;;;2.63;2.37;;;24.40;49.60;;;;;;5057410;28;20272;-44
2023/06/06 00:08:33;;;;;;;2.27;2.03;;;24.40;49.60;;;;;;5046801;28;20221;-44
2023/06/06 00:11:06;;;;;;;2.77;2.07;;;24.40;49.70;;;;;;5066516;28;20206;-44
2023/06/06 00:13:38;;;;;;;2.50;2.30;;;24.40;49.70;;;;;;5068393;28;20240;-44
2023/06/06 00:16:12;;;;;;;2.07;1.97;;;24.30;49.60;;;;;;5069638;28;20212;-44
2023/06/06 00:18:52;;;;;;;2.47;2.27;;;24.40;49.80;;;;;;5053507;28;20194;-45
2023/06/06 00:21:24;;;;;;;2.43;2.23;;;24.30;49.70;;;;;;5068546;28;20190;-44
2023/06/06 00:24:01;;;;;;;2.40;2.20;;;24.30;49.70;;;;;;5068360;28;20523;-44
2023/06/06 00:26:30;;;;;;;2.50;2.20;;;24.30;49.70;;;;;;5061724;28;20206;-44
2023/06/06 00:29:01;;;;;;;1.90;1.80;;;24.30;49.70;;;;;;5068328;28;20213;-44
2023/06/06 00:31:32;;;;;;;3.33;2.30;;;24.30;49.70;;;;;;5037825;28;20527;-45
2023/06/06 00:34:04;;;;;;;3.10;2.10;;;24.30;49.70;;;;;;5059289;28;20194;-45
2023/06/06 00:36:35;;;;;;;2.20;2.00;;;24.30;49.70;;;;;;5063472;28;20311;-44
2023/06/06 00:39:06;;;;;;;2.40;2.03;;;24.20;49.60;;;;;;5067324;28;20212;-50
2023/06/06 00:41:39;;;;;;;2.87;2.37;;;24.30;49.70;;;;;;5067356;28;20249;-45
2023/06/06 00:44:09;;;;;;;2.40;2.20;;;24.20;49.60;;;;;;5061375;28;20198;-44
2023/06/06 00:46:43;;;;;;;2.83;2.10;;;24.20;49.70;;;;;;5062486;28;20293;-45
2023/06/06 00:49:14;;;;;;;3.67;1.90;;;24.20;49.70;;;;;;5065398;28;20236;-44
2023/06/06 00:51:46;;;;;;;2.37;2.10;;;24.20;49.70;;;;;;5047864;28;20202;-44
2023/06/06 00:54:18;;;;;;;2.50;2.30;;;24.20;49.80;;;;;;5061584;28;20190;-44
2023/06/06 00:56:49;;;;;;;2.57;2.37;;;24.20;49.80;;;;;;5033395;28;20206;-44
2023/06/06 00:59:26;;;;;;;2.23;1.90;;;24.20;50.40;;;;;;5070534;28;20206;-44
2023/06/06 01:02:09;;;;;;;3.73;2.10;;;24.20;49.70;;;;;;5058340;28;20301;-45
2023/06/06 01:04:41;;;;;;;2.97;2.10;;;24.20;49.80;;;;;;5054134;28;20644;-44
2023/06/06 01:07:12;;;;;;;2.23;2.03;;;24.10;49.80;;;;;;5070103;28;20198;-44
2023/06/06 01:09:54;;;;;;;1.90;1.80;;;24.10;49.80;;;;;;5058827;28;20242;-45
2023/06/06 01:13:06;;;;;;;2.40;2.20;;;24.10;49.80;;;;;;5058728;28;20187;-45
2023/06/06 01:15:58;;;;;;;2.37;2.17;;;24.10;49.80;;;;;;5055858;28;20654;-45
2023/06/06 01:18:29;;;;;;;2.60;2.40;;;24.10;49.90;;;;;;5019413;28;20276;-44
2023/06/06 01:20:58;;;;;;;2.40;2.20;;;24.10;49.90;;;;;;5055529;28;20202;-45
2023/06/06 01:23:36;;;;;;;2.70;1.90;;;24.10;49.90;;;;;;5054643;28;20204;-44
2023/06/06 01:26:05;;;;;;;2.57;1.90;;;24.00;49.90;;;;;;5071674;28;20210;-45
2023/06/06 01:28:36;;;;;;;3.07;2.40;;;24.00;49.80;;;;;;5069292;28;20206;-45
2023/06/06 01:31:11;;;;;;;2.47;2.23;;;24.00;49.90;;;;;;5054081;28;20650;-44
2023/06/06 01:33:55;;;;;;;2.20;2.00;;;24.00;49.80;;;;;;5029558;28;20189;-44
2023/06/06 01:36:44;;;;;;;2.73;2.53;;;24.00;50.40;;;;;;5066831;28;20587;-44
2023/06/06 01:39:23;;;;;;;2.50;2.10;;;24.00;49.80;;;;;;5071940;28;20229;-44
2023/06/06 01:41:57;;;;;;;3.63;2.50;;;24.00;49.90;;;;;;5065523;28;20242;-44
2023/06/06 01:44:50;;;;;;;2.60;2.40;;;24.00;49.90;;;;;;5033598;28;20225;-44
2023/06/06 01:47:21;;;;;;;2.13;2.03;;;24.00;49.90;;;;;;5051006;28;20532;-45
2023/06/06 01:50:13;;;;;;;2.60;2.40;;;24.00;49.90;;;;;;5031958;28;20245;-44
2023/06/06 01:52:52;;;;;;;2.53;2.30;;;24.00;49.90;;;;;;5050240;28;20638;-44
2023/06/06 01:55:22;;;;;;;2.30;2.20;;;23.90;49.90;;;;;;5044008;28;20211;-45
2023/06/06 01:57:54;;;;;;;2.50;2.30;;;23.90;49.90;;;;;;5055443;28;20222;-45
2023/06/06 02:00:26;;;;;;;2.40;2.20;;;23.90;49.90;;;;;;5050207;28;20187;-45
2023/06/06 02:02:56;;;;;;;2.40;2.20;;;23.90;49.90;;;;;;5052436;28;20206;-44
2023/06/06 02:05:25;;;;;;;2.57;2.37;;;23.90;49.90;;;;;;5054225;28;20204;-44
2023/06/06 02:07:53;;;;;;;2.37;2.17;;;23.90;49.90;;;;;;5052777;28;20289;-44
2023/06/06 02:10:24;;;;;;;2.67;2.30;;;23.90;49.90;;;;;;5053260;28;20226;-45
2023/06/06 02:12:53;;;;;;;2.33;2.10;;;23.90;49.90;;;;;;5052519;28;20210;-44
2023/06/06 02:15:30;;;;;;;3.10;2.13;;;23.90;49.90;;;;;;5052537;28;20202;-44
2023/06/06 02:18:01;;;;;;;2.33;2.13;;;23.90;49.80;;;;;;5039031;28;20252;-44
2023/06/06 02:20:33;;;;;;;3.17;2.33;;;23.80;49.80;;;;;;5048684;28;20206;-44
2023/06/06 02:23:03;;;;;;;2.10;1.90;;;23.80;49.90;;;;;;5058735;28;20270;-45
2023/06/06 02:25:37;;;;;;;2.37;2.13;;;23.80;49.90;;;;;;5049117;28;20217;-44
2023/06/06 02:28:07;;;;;;;3.30;2.60;;;23.90;49.90;;;;;;5033483;28;20207;-44
2023/06/06 02:30:34;;;;;;;2.47;2.27;;;23.80;49.90;;;;;;5047766;28;20206;-44
2023/06/06 02:33:08;;;;;;;2.40;2.10;;;23.80;49.90;;;;;;5039458;28;20196;-44
2023/06/06 02:35:39;;;;;;;2.57;2.37;;;23.80;49.90;;;;;;5046589;28;20190;-44
2023/06/06 02:38:09;;;;;;;2.47;2.27;;;23.80;49.90;;;;;;5048603;28;20202;-44
2023/06/06 02:40:40;;;;;;;2.10;1.90;;;23.80;49.90;;;;;;5067033;28;20259;-45
2023/06/06 02:43:10;;;;;;;2.40;2.20;;;23.80;49.90;;;;;;5069822;28;20241;-44
2023/06/06 02:45:38;;;;;;;2.50;2.30;;;23.70;49.80;;;;;;5068006;28;20325;-44
2023/06/06 02:48:11;;;;;;;3.17;2.30;;;23.70;49.90;;;;;;5064196;28;20206;-44
2023/06/06 02:50:43;;;;;;;2.43;2.23;;;23.70;49.90;;;;;;5041037;28;20235;-44
2023/06/06 02:53:15;;;;;;;3.37;2.47;;;23.70;49.90;;;;;;5070035;28;20194;-44
2023/06/06 02:55:47;;;;;;;2.67;2.47;;;23.70;49.90;;;;;;5070210;28;20271;-45
2023/06/06 02:58:31;;;;;;;2.40;1.97;;;23.70;49.90;;;;;;5070305;28;20216;-44
2023/06/06 03:01:03;;;;;;;3.13;2.07;;;23.70;49.90;;;;;;5067342;28;20237;-44
2023/06/06 03:03:43;;;;;;;3.20;2.03;;;23.70;50.00;;;;;;5068051;28;20201;-44
2023/06/06 03:06:29;;;;;;;2.33;2.13;;;23.70;50.00;;;;;;5057744;28;20268;-44
2023/06/06 03:09:04;;;;;;;2.17;1.97;;;23.60;50.00;;;;;;5069916;28;20650;-45
2023/06/06 03:11:35;;;;;;;2.20;2.00;;;23.60;49.90;;;;;;5069709;28;20233;-44
2023/06/06 03:14:09;;;;;;;2.67;2.40;;;23.70;50.00;;;;;;5049806;28;20912;-45
2023/06/06 03:16:39;;;;;;;1.90;1.80;;;23.60;50.00;;;;;;5059208;28;20213;-44
2023/06/06 03:19:22;;;;;;;2.07;1.80;;;23.60;50.00;;;;;;5054327;28;20400;-45
2023/06/06 03:21:50;;;;;;;2.17;2.03;;;23.60;50.00;;;;;;5068613;28;20251;-44
2023/06/06 03:24:22;;;;;;;2.60;2.10;;;23.60;50.00;;;;;;5069046;28;20185;-44
2023/06/06 03:26:50;;;;;;;2.80;2.17;;;23.60;50.00;;;;;;5065367;28;20198;-44
2023/06/06 03:29:20;;;;;;;2.30;2.10;;;23.60;50.00;;;;;;5068876;28;20197;-44
2023/06/06 03:32:04;;;;;;;2.33;2.13;;;23.60;50.00;;;;;;5057974;28;20229;-44
2023/06/06 03:34:35;;;;;;;2.47;1.90;;;23.60;50.00;;;;;;5061034;28;20215;-44
2023/06/06 03:37:04;;;;;;;3.17;1.97;;;23.60;50.00;;;;;;5066437;28;20202;-44
2023/06/06 03:39:35;;;;;;;2.03;1.87;;;23.60;50.00;;;;;;5068667;28;20197;-44
2023/06/06 03:42:09;;;;;;;2.33;2.13;;;23.60;50.00;;;;;;5068973;28;20234;-44
2023/06/06 03:44:39;;;;;;;2.20;2.00;;;23.60;49.90;;;;;;5066965;28;20619;-44
2023/06/06 03:47:11;;;;;;;2.40;2.00;;;23.60;50.00;;;;;;5069149;28;20189;-44
2023/06/06 03:49:38;;;;;;;1.70;1.60;;;23.60;50.00;;;;;;5058949;28;20202;-44
2023/06/06 03:52:10;;;;;;;2.33;1.80;;;23.60;49.90;;;;;;5068833;28;20198;-44
2023/06/06 03:54:39;;;;;;;2.33;2.13;;;23.60;49.90;;;;;;5056949;28;20205;-45
2023/06/06 03:57:11;;;;;;;2.93;1.97;;;23.60;49.90;;;;;;5068001;28;20186;-45
2023/06/06 03:59:42;;;;;;;2.43;2.00;;;23.60;49.90;;;;;;5068192;28;20206;-45
2023/06/06 04:02:11;;;;;;;2.40;2.20;;;23.50;49.90;;;;;;5066512;28;20212;-44
2023/06/06 04:04:41;;;;;;;2.20;2.00;;;23.50;49.80;;;;;;5062401;28;20258;-44
2023/06/06 04:07:12;;;;;;;2.57;2.20;;;23.60;49.90;;;;;;5068048;28;20263;-44
2023/06/06 04:09:44;;;;;;;2.13;1.93;;;23.60;49.90;;;;;;5056088;28;20205;-44
2023/06/06 04:12:14;;;;;;;2.13;1.93;;;23.60;49.90;;;;;;5068723;28;20258;-44
2023/06/06 04:14:49;;;;;;;2.63;2.20;;;23.50;49.90;;;;;;5072370;28;20211;-43
2023/06/06 04:17:19;;;;;;;2.63;2.07;;;23.50;49.90;;;;;;5057600;28;20605;-44
2023/06/06 04:19:55;;;;;;;2.77;2.40;;;23.50;49.90;;;;;;5040424;28;20201;-44
2023/06/06 04:22:28;;;;;;;2.50;2.10;;;23.50;49.90;;;;;;5051243;28;20218;-44
2023/06/06 04:24:58;;;;;;;2.30;2.10;;;23.50;49.80;;;;;;5064281;28;20239;-44
2023/06/06 04:27:37;;;;;;;1.80;1.67;;;23.50;49.90;;;;;;5068398;28;20209;-44
2023/06/06 04:30:22;;;;;;;2.20;2.00;;;23.50;49.90;;;;;;5072891;28;20650;-44
2023/06/06 04:32:52;;;;;;;2.93;1.97;;;23.50;49.90;;;;;;5052776;28;20190;-44
2023/06/06 04:35:23;;;;;;;2.30;2.10;;;23.50;49.90;;;;;;5067585;28;20208;-44
2023/06/06 04:37:56;;;;;;;2.53;2.20;;;23.50;49.90;;;;;;5037667;28;20210;-46
2023/06/06 04:40:32;;;;;;;2.37;2.17;;;23.50;49.90;;;;;;5054979;28;20307;-44
2023/06/06 04:43:25;;;;;;;2.20;2.00;;;23.40;49.80;;;;;;5071684;28;20247;-44
2023/06/06 04:46:01;;;;;;;2.07;1.97;;;23.50;49.90;;;;;;5072720;28;20213;-44
2023/06/06 04:48:31;;;;;;;2.33;2.10;;;23.50;49.90;;;;;;5065865;28;21188;-45
2023/06/06 04:51:04;;;;;;;2.53;2.00;;;23.40;49.80;;;;;;5072403;28;20264;-44
2023/06/06 04:53:42;;;;;;;2.60;2.10;;;23.40;49.80;;;;;;5068574;28;20202;-45
2023/06/06 04:56:12;;;;;;;2.37;2.17;;;23.40;49.90;;;;;;5072407;28;20201;-45
2023/06/06 04:58:45;;;;;;;2.20;1.97;;;23.40;49.90;;;;;;5069110;28;20324;-44
2023/06/06 05:01:16;;;;;;;1.97;1.87;;;23.40;49.80;;;;;;5053073;28;20202;-44
2023/06/06 05:03:47;;;;;;;2.30;2.10;;;23.40;49.80;;;;;;5055264;28;20194;-45
2023/06/06 05:06:19;;;;;;;3.33;2.43;;;23.40;49.80;;;;;;5072048;28;20239;-45
2023/06/06 05:08:49;;;;;;;2.37;2.00;;;23.40;49.80;;;;;;5069839;28;20216;-45
2023/06/06 05:11:18;;;;;;;2.23;2.03;;;23.40;49.80;;;;;;5079111;28;20228;-45
2023/06/06 05:13:51;;;;;;;2.13;1.90;;;23.40;49.80;;;;;;5048805;28;20235;-44
2023/06/06 05:16:23;;;;;;;2.33;1.90;;;23.40;49.80;;;;;;5068693;28;20197;-44
2023/06/06 05:18:51;;;;;;;2.17;1.80;;;23.40;49.70;;;;;;5063184;28;20194;-44
2023/06/06 05:21:23;;;;;;;2.27;2.03;;;23.40;49.80;;;;;;5072331;28;20205;-44
2023/06/06 05:23:55;;;;;;;2.43;2.23;;;23.40;49.80;;;;;;5072929;28;20194;-44
2023/06/06 05:26:26;;;;;;;2.30;2.10;;;23.40;49.70;;;;;;5063717;28;20221;-44
2023/06/06 05:28:56;;;;;;;1.93;1.70;;;23.40;49.80;;;;;;5073149;28;20205;-44
2023/06/06 05:31:28;;;;;;;3.23;2.47;;;23.40;49.80;;;;;;5072793;28;20217;-44
2023/06/06 05:33:59;;;;;;;3.13;2.20;;;23.40;49.90;;;;;;5061012;28;20272;-44
2023/06/06 05:36:29;;;;;;;5.20;2.40;;;23.40;50.00;;;;;;5067538;28;20194;-45
2023/06/06 05:39:01;;;;;;;2.87;2.03;;;23.40;50.10;;;;;;5031717;28;20202;-45
2023/06/06 05:41:33;;;;;;;3.20;2.40;;;23.40;50.30;;;;;;5071810;28;22082;-45
2023/06/06 05:44:05;;;;;;;4.47;2.33;;;23.40;50.30;;;;;;5071976;28;20206;-45
2023/06/06 05:46:44;;;;;;;5.37;2.13;;;23.40;50.30;;;;;;5068412;28;20210;-45
2023/06/06 05:49:20;;;;;;;2.70;2.20;;;23.40;50.30;;;;;;5068824;28;20217;-45
2023/06/06 05:51:54;;;;;;;3.07;2.27;;;23.40;50.30;;;;;;5068118;28;20576;-45
2023/06/06 05:54:23;;;;;;;3.17;2.10;;;23.40;50.30;;;;;;5069173;28;20205;-45
2023/06/06 05:57:22;;;;;;;4.40;2.13;;;23.40;50.30;;;;;;5069052;28;20643;-44
2023/06/06 06:00:00;;;;;;;4.53;2.37;;;23.40;50.30;;;;;;5053499;28;20281;-45
2023/06/06 06:02:33;;;;;;;2.40;2.20;;;23.40;50.20;;;;;;5059285;28;20578;-45
2023/06/06 06:05:05;;;;;;;5.03;2.17;;;23.40;50.20;;;;;;5051902;28;20201;-46
2023/06/06 06:07:37;;;;;;;3.27;2.20;;;23.50;50.20;;;;;;5072433;28;20241;-45
2023/06/06 06:10:08;;;;;;;6.27;2.50;;;23.60;50.00;;;;;;5053617;28;20190;-46
2023/06/06 06:12:41;;;;;;;4.23;2.53;;;23.60;49.90;;;;;;5062242;28;20202;-45
2023/06/06 06:15:12;;;;;;;5.03;2.30;;;23.70;49.70;;;;;;5051618;28;20266;-45
2023/06/06 06:17:43;;;;;;;2.60;2.30;;;23.80;49.60;;;;;;5055002;28;20198;-45
2023/06/06 06:20:19;;;;;;;3.83;2.20;;;23.80;49.30;;;;;;5070714;28;20196;-45
2023/06/06 06:22:50;;;;;;;3.50;2.20;;;23.80;49.20;;;;;;5067822;28;20193;-45
2023/06/06 06:25:20;;;;;;;4.70;2.20;;;23.90;49.20;;;;;;5069485;28;20276;-45
2023/06/06 06:27:50;;;;;;;4.77;2.27;;;23.90;49.20;;;;;;5071196;28;20213;-46
2023/06/06 06:30:23;;;;;;;3.77;1.67;;;24.00;49.00;;;;;;5070060;28;20306;-45
2023/06/06 06:32:53;;;;;;;3.93;2.10;;;24.10;49.00;;;;;;5052178;28;20624;-45
2023/06/06 06:35:26;;;;;;;2.97;2.20;;;24.10;48.80;;;;;;5069597;28;20197;-44
2023/06/06 06:37:56;;;;;;;2.30;2.10;;;24.10;48.80;;;;;;5045957;28;20217;-45
2023/06/06 06:40:28;;;;;;;2.93;2.43;;;24.20;48.60;;;;;;5068713;28;20276;-44
2023/06/06 06:42:56;;;;;;;2.60;2.40;;;24.20;48.40;;;;;;5058618;28;20573;-45
2023/06/06 06:45:27;;;;;;;2.83;1.90;;;24.30;48.90;;;;;;5060521;28;20549;-45
2023/06/06 06:47:59;;;;;;;3.60;2.10;;;24.40;48.30;;;;;;5068997;28;20319;-45
2023/06/06 06:50:32;;;;;;;3.97;2.67;;;24.40;48.10;;;;;;5058584;28;20257;-45
2023/06/06 06:53:04;;;;;;;3.47;1.97;;;24.40;48.10;;;;;;5060961;28;20197;-45
2023/06/06 06:55:38;;;;;;;2.20;1.97;;;24.40;48.10;;;;;;5067826;28;20632;-44
2023/06/06 06:58:08;;;;;;;4.40;2.17;;;24.50;48.10;;;;;;5065628;28;20251;-45
2023/06/06 07:00:39;;;;;;;2.13;2.03;;;24.50;48.10;;;;;;5064794;28;20201;-45
2023/06/06 07:03:10;;;;;;;3.20;2.10;;;24.50;47.90;;;;;;5052862;28;20214;-44
2023/06/06 07:05:42;;;;;;;3.10;2.40;;;24.60;48.00;;;;;;5069690;28;20205;-45
2023/06/06 07:08:14;;;;;;;3.00;1.70;;;24.60;47.80;;;;;;5068763;28;20640;-44
2023/06/06 07:10:44;;;;;;;3.20;2.20;;;24.60;47.80;;;;;;5066948;28;20645;-45
2023/06/06 07:13:15;;;;;;;4.83;2.07;;;24.70;47.80;;;;;;5049104;28;20255;-45
2023/06/06 07:15:47;;;;;;;2.50;1.80;;;24.70;47.70;;;;;;5052480;28;20202;-45
2023/06/06 07:18:20;;;;;;;1.90;1.80;;;24.70;47.60;;;;;;5056044;28;20240;-45
2023/06/06 07:20:51;;;;;;;2.17;1.97;;;24.80;47.70;;;;;;5078575;28;20201;-45
2023/06/06 07:23:22;;;;;;;2.57;2.30;;;24.80;47.80;;;;;;5069915;28;20204;-45
2023/06/06 07:25:57;;;;;;;2.00;1.80;;;24.80;47.70;;;;;;5066810;28;20255;-45
2023/06/06 07:28:26;;;;;;;4.27;2.30;;;24.80;47.40;;;;;;5066998;28;20209;-45
2023/06/06 07:30:55;;;;;;;6.77;2.30;;;24.80;47.50;;;;;;5068534;28;20210;-45
2023/06/06 07:33:27;;;;;;;7.20;2.17;;;24.90;47.80;;;;;;5066209;28;20198;-45
2023/06/06 07:35:58;;;;;;;2.30;2.10;;;24.90;47.70;;;;;;5069821;28;20595;-45
2023/06/06 07:38:30;;;;;;;2.67;2.00;;;24.90;47.50;;;;;;5050578;28;20281;-45
2023/06/06 07:40:58;;;;;;;2.03;1.93;;;24.90;47.40;;;;;;5050497;28;20193;-45
2023/06/06 07:43:30;;;;;;;5.53;2.57;;;24.90;47.30;;;;;;5057125;28;20237;-45
2023/06/06 07:46:00;;;;;;;3.47;2.50;;;24.90;47.60;;;;;;5049140;28;20270;-45
2023/06/06 07:48:32;;;;;;;3.37;2.80;;;24.90;47.50;;;;;;5043338;28;20222;-44
2023/06/06 07:51:00;;;;;;;3.20;2.57;;;24.90;47.00;;;;;;5049172;28;20279;-45
2023/06/06 07:53:28;;;;;;;3.17;2.60;;;25.00;47.40;;;;;;5031179;28;20688;-45
2023/06/06 07:56:00;;;;;;;5.27;2.33;;;25.00;47.60;;;;;;5048904;28;20194;-44
2023/06/06 07:58:53;;;;;;;5.23;2.60;;;25.00;47.60;;;;;;5038839;28;20245;-45
2023/06/06 08:01:23;;;;;;;3.50;2.20;;;25.00;47.20;;;;;;5044152;28;20214;-45
2023/06/06 08:03:59;;;;;;;2.43;2.23;;;25.00;47.40;;;;;;5042106;28;20263;-45
2023/06/06 08:06:33;;;;;;;3.37;2.33;;;25.00;47.30;;;;;;5042906;28;20565;-45
2023/06/06 08:09:06;;;;;;;4.03;2.80;;;25.00;47.40;;;;;;5047490;28;20202;-45
2023/06/06 08:11:37;;;;;;;7.60;2.77;;;25.00;47.20;;;;;;5041834;28;20780;-46
2023/06/06 08:14:06;;;;;;;2.63;2.37;;;25.00;47.10;;;;;;5028155;28;20202;-46
2023/06/06 08:16:33;;;;;;;2.67;2.47;;;25.10;47.40;;;;;;5042899;28;20217;-44
2023/06/06 08:19:04;;;;;;;2.97;2.40;;;25.10;47.40;;;;;;5047903;28;20709;-45
2023/06/06 08:21:33;;;;;;;2.90;2.50;;;25.10;47.40;;;;;;5036620;28;20190;-45
2023/06/06 08:24:06;;;;;;;4.17;2.97;;;25.20;47.60;;;;;;5029978;28;20203;-45
2023/06/06 08:26:37;;;;;;;2.53;2.27;;;25.10;47.60;;;;;;5026371;28;20783;-45
2023/06/06 08:29:10;;;;;;;2.63;2.10;;;25.20;47.80;;;;;;5045271;28;20237;-45
2023/06/06 08:31:47;;;;;;;2.60;2.23;;;25.20;47.50;;;;;;5029183;28;20206;-45
2023/06/06 08:34:26;;;;;;;2.20;2.00;;;25.20;47.70;;;;;;5041724;28;20182;-46
2023/06/06 08:36:55;;;;;;;2.40;2.20;;;25.30;47.70;;;;;;5045605;28;20221;-46
2023/06/06 08:39:25;;;;;;;3.83;2.20;;;25.20;47.50;;;;;;5048287;28;20201;-45
2023/06/06 08:41:58;;;;;;;2.47;2.27;;;25.30;47.60;;;;;;5046328;28;20239;-46
2023/06/06 08:44:30;;;;;;;3.50;2.47;;;25.30;47.60;;;;;;5044434;28;20195;-45
2023/06/06 08:47:04;;;;;;;2.90;2.63;;;25.30;47.70;;;;;;5037862;28;20221;-45
2023/06/06 08:49:36;;;;;;;2.90;2.60;;;25.30;47.60;;;;;;5029790;28;20214;-45
2023/06/06 08:52:08;;;;;;;5.63;2.97;;;25.30;47.30;;;;;;5048338;28;20260;-45
2023/06/06 08:54:43;;;;;;;2.87;2.67;;;25.30;47.50;;;;;;5028697;28;20348;-45
2023/06/06 08:57:19;;;;;;;4.40;2.40;;;25.30;47.70;;;;;;5048350;28;20206;-45
2023/06/06 09:00:11;;;;;;;2.87;2.50;;;25.40;47.70;;;;;;5037514;28;20271;-45
2023/06/06 09:02:41;;;;;;;2.67;2.47;;;25.40;47.70;;;;;;5041626;28;20198;-44
2023/06/06 09:05:14;;;;;;;4.07;2.50;;;25.40;47.80;;;;;;5031183;28;20199;-45
2023/06/06 09:07:57;;;;;;;3.03;2.23;;;25.50;47.80;;;;;;5014740;28;20297;-46
2023/06/06 09:10:27;;;;;;;2.53;2.30;;;25.50;47.70;;;;;;5032365;28;20260;-45
2023/06/06 09:12:57;;;;;;;4.00;2.30;;;25.50;47.90;;;;;;5034223;28;20706;-44
2023/06/06 09:15:27;;;;;;;2.93;2.63;;;25.50;48.50;;;;;;5051102;28;20198;-44
2023/06/06 09:17:57;;;;;;;2.70;2.30;;;25.60;47.80;;;;;;5040187;28;20193;-45
2023/06/06 09:20:25;;;;;;;2.83;2.50;;;25.50;47.90;;;;;;5050289;28;20218;-45
2023/06/06 09:22:57;;;;;;;3.93;2.23;;;25.60;47.80;;;;;;5051369;28;20205;-44
2023/06/06 09:25:27;;;;;;;2.63;2.33;;;25.60;48.00;;;;;;5031659;28;20211;-44
2023/06/06 09:28:00;;;;;;;2.70;2.10;;;25.60;47.90;;;;;;5050449;28;20207;-45
2023/06/06 09:30:42;;;;;;;2.97;2.30;;;25.60;48.10;;;;;;5033688;28;20289;-44
2023/06/06 09:33:19;;;;;;;2.77;2.57;;;25.60;48.10;;;;;;5050843;28;20197;-45
2023/06/06 09:35:49;;;;;;;2.30;2.10;;;25.60;48.00;;;;;;5034337;28;20364;-45
2023/06/06 09:38:20;;;;;;;3.80;2.50;;;25.60;48.00;;;;;;5048009;28;20278;-45
2023/06/06 09:40:51;;;;;;;3.57;2.27;;;25.60;48.10;;;;;;5049659;28;20245;-44
2023/06/06 09:43:28;;;;;;;3.40;2.50;;;25.60;48.10;;;;;;5066444;28;20229;-44
2023/06/06 09:46:04;;;;;;;2.90;2.10;;;25.70;48.10;;;;;;5072620;28;20197;-45
2023/06/06 09:48:41;;;;;;;3.40;2.40;;;25.70;48.20;;;;;;5062326;28;20208;-44
2023/06/06 09:51:21;;;;;;;2.83;2.30;;;25.70;48.20;;;;;;5054102;28;20197;-44
2023/06/06 09:54:00;;;;;;;2.93;2.17;;;25.70;48.20;;;;;;5070022;28;20201;-45
2023/06/06 09:56:33;;;;;;;3.03;2.37;;;25.80;48.20;;;;;;5066407;28;20201;-44
2023/06/06 09:59:08;;;;;;;5.57;2.90;;;25.80;48.20;;;;;;5070994;28;20205;-45
2023/06/06 10:01:44;;;;;;;2.67;2.47;;;25.80;48.20;;;;;;5035483;28;20202;-45
2023/06/06 10:04:17;;;;;;;4.53;3.17;;;25.80;48.20;;;;;;5070362;28;20212;-45
2023/06/06 10:06:46;;;;;;;3.17;2.80;;;25.80;48.10;;;;;;5050344;28;20764;-45
2023/06/06 10:09:19;;;;;;;3.33;2.97;;;25.90;48.20;;;;;;5032996;28;20543;-45
2023/06/06 10:11:52;;;;;;;3.03;2.80;;;25.90;48.30;;;;;;5029744;28;20217;-44
2023/06/06 10:14:21;;;;;;;4.10;2.97;;;25.90;48.10;;;;;;5050257;28;20232;-44
2023/06/06 10:16:53;;;;;;;3.70;3.10;;;25.90;48.00;;;;;;5029630;28;20234;-44
2023/06/06 10:19:28;;;;;;;3.47;2.90;;;25.90;47.70;;;;;;5049845;28;20198;-44
2023/06/06 10:22:12;;;;;;;3.00;2.60;;;25.90;47.90;;;;;;5055035;28;20662;-45
2023/06/06 10:24:40;;;;;;;5.77;3.20;;;25.80;48.10;;;;;;5064918;28;20194;-44
2023/06/06 10:27:30;;;;;;;2.57;2.37;;;25.80;48.00;;;;;;5067382;28;20205;-44
2023/06/06 10:30:18;;;;;;;2.77;2.57;;;25.90;48.30;;;;;;5047673;28;20198;-45
2023/06/06 10:33:14;;;;;;;2.43;2.23;;;25.80;48.00;;;;;;5055347;28;20224;-45
2023/06/06 10:35:46;;;;;;;2.93;2.40;;;25.80;48.20;;;;;;5060062;28;20202;-44
2023/06/06 10:38:37;;;;;;;3.20;2.63;;;25.80;48.00;;;;;;5036193;28;20237;-45
2023/06/06 10:41:16;;;;;;;3.83;2.70;;;25.80;48.40;;;;;;5074032;28;20205;-45
2023/06/06 10:43:51;;;;;;;4.50;2.70;;;25.80;48.30;;;;;;5068141;28;20244;-45
2023/06/06 10:46:23;;;;;;;2.87;2.57;;;25.80;48.30;;;;;;5070490;28;20225;-44
2023/06/06 10:48:56;;;;;;;5.40;2.50;;;25.90;48.50;;;;;;5046524;28;20225;-44
2023/06/06 10:51:36;;;;;;;2.90;2.60;;;25.90;48.30;;;;;;5023961;28;20201;-44
2023/06/06 10:54:26;;;;;;;2.80;2.30;;;26.00;48.40;;;;;;5065784;28;20229;-44
2023/06/06 10:57:02;;;;;;;2.90;2.13;;;26.00;49.10;;;;;;5041679;28;20292;-44
2023/06/06 10:59:32;;;;;;;3.10;2.50;;;26.30;48.90;;;;;;5069272;28;20225;-45
2023/06/06 11:02:31;;;;;;;3.33;2.90;;;26.10;48.80;;;;;;5050087;28;20201;-45
2023/06/06 11:05:11;;;;;;;4.67;2.83;;;26.10;48.50;;;;;;5037795;28;20204;-45
2023/06/06 11:07:47;;;;;;;2.33;2.13;;;26.10;48.60;;;;;;5056941;28;20217;-45
2023/06/06 11:10:20;;;;;;;14.77;3.20;;;26.10;48.80;;;;;;5044885;28;20674;-43
2023/06/06 11:12:56;;;;;;;3.50;2.60;;;26.20;48.90;;;;;;5064261;28;20216;-43
2023/06/06 11:15:30;;;;;;;3.47;2.67;;;26.20;48.60;;;;;;5057331;28;20189;-44
2023/06/06 11:18:13;;;;;;;4.13;2.67;;;26.20;48.70;;;;;;5042352;28;20278;-45
2023/06/06 11:20:48;;;;;;;2.90;2.50;;;26.20;48.80;;;;;;5066410;28;20193;-45
2023/06/06 11:23:19;;;;;;;3.00;2.67;;;26.20;48.90;;;;;;5057474;28;20193;-44
2023/06/06 11:25:49;;;;;;;3.67;2.47;;;26.20;48.90;;;;;;5049772;28;20737;-45
2023/06/06 11:28:26;;;;;;;4.10;2.73;;;26.20;49.00;;;;;;5051706;28;20255;-46
2023/06/06 11:30:56;;;;;;;2.80;2.47;;;26.30;49.00;;;;;;5048266;28;20584;-45
2023/06/06 11:33:33;;;;;;;2.97;2.60;;;26.30;49.00;;;;;;5068790;28;20217;-45
2023/06/06 11:36:05;;;;;;;2.70;2.50;;;26.40;49.10;;;;;;5069061;28;20193;-45
2023/06/06 11:38:35;;;;;;;5.10;2.60;;;26.40;49.10;;;;;;5042305;28;20245;-45
2023/06/06 11:41:06;;;;;;;2.40;2.20;;;26.40;49.20;;;;;;5069041;28;20193;-45
2023/06/06 11:43:35;;;;;;;3.23;2.30;;;26.40;49.10;;;;;;5064503;28;20238;-45
2023/06/06 11:46:06;;;;;;;2.83;2.37;;;26.50;49.50;;;;;;5051630;28;20212;-45
2023/06/06 11:48:43;;;;;;;4.73;2.63;;;26.50;49.60;;;;;;5056247;28;20544;-45
2023/06/06 11:51:16;;;;;;;2.73;2.30;;;26.50;49.60;;;;;;5068511;28;20197;-45
2023/06/06 11:53:48;;;;;;;3.20;2.43;;;26.60;49.60;;;;;;5051286;28;20571;-45
2023/06/06 11:56:19;;;;;;;2.93;2.50;;;26.60;49.50;;;;;;5069101;28;20202;-45
2023/06/06 11:58:54;;;;;;;2.53;2.33;;;26.60;49.30;;;;;;5048091;28;20667;-45
2023/06/06 12:01:23;;;;;;;3.40;2.53;;;26.70;49.30;;;;;;5067031;28;20671;-46
2023/06/06 12:03:55;;;;;;;4.17;2.10;;;26.60;49.50;;;;;;5071695;28;20205;-45
2023/06/06 12:06:35;;;;;;;17.63;2.87;;;26.60;49.40;;;;;;5060512;28;20209;-44
2023/06/06 12:09:16;;;;;;;3.03;2.77;;;26.70;49.00;;;;;;5044753;28;20545;-44
2023/06/06 12:12:05;;;;;;;2.30;2.10;;;26.80;49.10;;;;;;5064844;28;20196;-44
2023/06/06 12:14:35;;;;;;;3.53;2.50;;;26.70;49.00;;;;;;5063594;28;20654;-45
2023/06/06 12:17:10;;;;;;;3.67;2.97;;;26.70;49.10;;;;;;5037557;28;20263;-45
2023/06/06 12:19:42;;;;;;;3.33;2.80;;;26.70;49.30;;;;;;5067458;28;20201;-46
2023/06/06 12:22:13;;;;;;;3.20;2.90;;;26.70;49.30;;;;;;5049904;28;20202;-45
2023/06/06 12:24:47;;;;;;;5.90;3.23;;;26.70;49.30;;;;;;5054337;28;20277;-45
2023/06/06 12:27:33;;;;;;;4.73;2.70;;;26.70;49.30;;;;;;5044409;28;20205;-45
2023/06/06 12:30:07;;;;;;;3.30;3.00;;;26.70;49.30;;;;;;5037676;28;20214;-46
2023/06/06 12:32:40;;;;;;;3.87;2.60;;;26.60;49.40;;;;;;5067482;28;20217;-46
2023/06/06 12:35:21;;;;;;;5.10;2.70;;;26.70;49.40;;;;;;5060929;28;20190;-45
2023/06/06 12:38:05;;;;;;;3.47;3.07;;;26.60;49.50;;;;;;5054416;28;20662;-45
2023/06/06 12:40:55;;;;;;;5.80;2.80;;;26.60;49.50;;;;;;5066332;28;20233;-45
2023/06/06 12:43:28;;;;;;;8.53;3.03;;;26.60;49.70;;;;;;5030999;28;20226;-46
2023/06/06 12:46:00;;;;;;;3.57;3.00;;;26.60;49.60;;;;;;5048152;28;20213;-44
2023/06/06 12:48:31;;;;;;;3.63;2.70;;;26.50;49.50;;;;;;5042603;28;20201;-45
2023/06/06 12:51:01;;;;;;;3.27;2.97;;;26.50;49.50;;;;;;5051483;28;20198;-45
2023/06/06 12:53:32;;;;;;;3.03;2.70;;;26.50;49.30;;;;;;5051141;28;20276;-45
2023/06/06 12:56:04;;;;;;;5.70;3.10;;;26.50;49.80;;;;;;5052141;28;20692;-44
2023/06/06 12:58:34;;;;;;;3.60;2.77;;;26.40;49.90;;;;;;5049233;28;20643;-44
2023/06/06 13:01:05;;;;;;;3.03;2.43;;;26.50;50.10;;;;;;5048188;28;20206;-45
2023/06/06 13:03:36;;;;;;;3.47;2.63;;;26.40;50.20;;;;;;5055924;28;20194;-47
2023/06/06 13:06:09;;;;;;;2.97;2.70;;;26.40;50.20;;;;;;5051233;28;20222;-45
2023/06/06 13:08:40;;;;;;;4.37;3.00;;;26.40;50.40;;;;;;5048678;28;20565;-45
2023/06/06 13:11:12;;;;;;;4.30;2.80;;;26.40;50.30;;;;;;5051958;28;20217;-44
2023/06/06 13:13:56;;;;;;;3.00;2.70;;;26.40;50.30;;;;;;5048799;28;20350;-45
2023/06/06 13:16:27;;;;;;;3.50;2.90;;;26.30;50.30;;;;;;5047633;28;20957;-44
2023/06/06 13:18:58;;;;;;;3.47;3.10;;;26.30;50.40;;;;;;5026437;28;20195;-44
2023/06/06 13:21:29;;;;;;;4.13;2.70;;;26.30;50.40;;;;;;5051820;28;20222;-44